Time;durP1;ratioP1;P1;durP2;ratioP2;P2;SDS_P1;SDS_P2;PMS_P1;PMS_P2;Temp;Humidity;BMP_temperature;BMP_pressure;BME280_temperature;BME280_humidity;BME280_pressure;Samples;Min_cycle;Max_cycle;Signal;HPM_P1;HPM_P2
2020/12/19 00:01:46;;;;;;;24.03;13.70;;;6.20;99.90;;;;;;5050368;28;20484;-53
2020/12/19 00:04:13;;;;;;;21.70;13.15;;;6.30;99.90;;;;;;5053050;28;20378;-53
2020/12/19 00:06:42;;;;;;;18.80;13.02;;;7.60;99.90;;;;;;5051999;28;20921;-53
2020/12/19 00:09:08;;;;;;;23.45;13.60;;;6.30;99.90;;;;;;5052444;28;20413;-53
2020/12/19 00:11:33;;;;;;;20.97;13.10;;;6.40;99.90;;;;;;5051395;28;20463;-53
2020/12/19 00:13:59;;;;;;;23.00;14.20;;;6.40;99.90;;;;;;5052599;28;20399;-53
2020/12/19 00:16:29;;;;;;;22.30;13.80;;;6.40;99.90;;;;;;5051910;28;20485;-55
2020/12/19 00:18:55;;;;;;;20.70;12.73;;;6.40;99.90;;;;;;5051977;28;20408;-53
2020/12/19 00:21:21;;;;;;;21.20;12.77;;;6.20;99.90;;;;;;5052170;28;20377;-55
2020/12/19 00:23:47;;;;;;;19.67;12.23;;;6.10;99.90;;;;;;5052219;28;20405;-53
2020/12/19 00:26:13;;;;;;;19.83;12.30;;;6.10;99.90;;;;;;5052121;28;20841;-53
2020/12/19 00:28:39;;;;;;;21.63;11.90;;;6.20;99.90;;;;;;5051305;28;20385;-53
2020/12/19 00:31:05;;;;;;;24.33;12.82;;;6.20;99.90;;;;;;5049993;28;20813;-53
2020/12/19 00:33:31;;;;;;;19.20;12.32;;;6.20;99.90;;;;;;5051199;28;20382;-53
2020/12/19 00:35:56;;;;;;;20.77;11.93;;;6.20;99.90;;;;;;5051996;28;20377;-53
2020/12/19 00:38:22;;;;;;;21.00;13.00;;;6.10;99.90;;;;;;5051978;28;21162;-55
2020/12/19 00:40:48;;;;;;;18.77;12.68;;;6.10;99.90;;;;;;5050484;28;20381;-53
2020/12/19 00:43:14;;;;;;;17.50;11.52;;;6.00;99.90;;;;;;5052024;28;20523;-53
2020/12/19 00:45:39;;;;;;;22.43;13.00;;;5.90;99.90;;;;;;5051213;28;20431;-54
2020/12/19 00:48:05;;;;;;;19.60;13.13;;;5.90;99.90;;;;;;5051925;28;20827;-53
2020/12/19 00:50:30;;;;;;;19.60;12.60;;;6.40;99.90;;;;;;5051305;28;20393;-53
2020/12/19 00:52:56;;;;;;;21.25;12.70;;;5.90;99.90;;;;;;5051764;28;20772;-53
2020/12/19 00:55:22;;;;;;;20.83;12.73;;;6.00;99.90;;;;;;5051828;28;20384;-55
2020/12/19 00:57:47;;;;;;;18.92;12.43;;;6.10;99.90;;;;;;5050917;28;20413;-53
2020/12/19 01:00:13;;;;;;;19.00;12.60;;;6.10;99.90;;;;;;5051520;28;20420;-53
2020/12/19 01:02:39;;;;;;;19.65;12.10;;;6.20;99.90;;;;;;5050918;28;20498;-53
2020/12/19 01:05:06;;;;;;;20.10;13.13;;;6.00;99.90;;;;;;5050019;28;20866;-53
2020/12/19 01:07:32;;;;;;;21.08;13.15;;;6.10;99.90;;;;;;5050790;28;20461;-53
2020/12/19 01:09:58;;;;;;;20.30;12.45;;;6.10;99.90;;;;;;5051228;28;20472;-53
2020/12/19 01:12:24;;;;;;;24.98;14.00;;;6.20;99.90;;;;;;5050939;28;20392;-55
2020/12/19 01:14:50;;;;;;;20.33;13.48;;;5.80;99.90;;;;;;5051329;28;20425;-53
2020/12/19 01:17:16;;;;;;;22.00;13.20;;;6.10;99.90;;;;;;5051011;28;20449;-53
2020/12/19 01:19:41;;;;;;;19.37;12.70;;;6.00;99.90;;;;;;5050273;28;20409;-53
2020/12/19 01:22:07;;;;;;;18.75;12.00;;;6.60;99.90;;;;;;5051397;28;20750;-53
2020/12/19 01:24:33;;;;;;;19.10;12.53;;;6.00;99.90;;;;;;5050448;28;20485;-53
2020/12/19 01:26:59;;;;;;;22.27;12.93;;;6.00;99.90;;;;;;5050878;28;20476;-53
2020/12/19 01:29:24;;;;;;;19.13;12.80;;;6.10;99.90;;;;;;5050927;28;20472;-55
2020/12/19 01:31:50;;;;;;;20.10;12.30;;;6.20;99.90;;;;;;5050706;28;20413;-53
2020/12/19 01:34:16;;;;;;;18.73;12.20;;;6.10;99.90;;;;;;5050384;28;20381;-53
2020/12/19 01:36:43;;;;;;;21.33;13.00;;;6.40;99.90;;;;;;5049880;28;20377;-53
2020/12/19 01:39:09;;;;;;;18.17;11.55;;;6.00;99.90;;;;;;5049857;28;20408;-53
2020/12/19 01:41:34;;;;;;;18.00;12.32;;;6.10;99.90;;;;;;5049007;28;20397;-53
2020/12/19 01:44:02;;;;;;;17.47;11.60;;;6.00;99.90;;;;;;5050783;28;20377;-54
2020/12/19 01:46:42;;;;;;;19.40;11.50;;;5.90;99.90;;;;;;5028466;28;20813;-53
2020/12/19 01:49:09;;;;;;;20.80;12.70;;;5.90;99.90;;;;;;5050502;28;20439;-53
2020/12/19 01:51:35;;;;;;;20.13;13.15;;;5.90;99.90;;;;;;5030589;28;20397;-53
2020/12/19 01:54:01;;;;;;;18.17;11.90;;;6.00;99.90;;;;;;5050401;28;20389;-53
2020/12/19 01:56:51;;;;;;;20.38;12.48;;;6.60;99.90;;;;;;5048657;28;20766;-55
2020/12/19 01:59:18;;;;;;;18.27;11.85;;;6.50;99.90;;;;;;5044658;28;20759;-53
2020/12/19 02:01:46;;;;;;;18.90;12.23;;;6.20;99.90;;;;;;5049722;28;20436;-53
2020/12/19 02:04:13;;;;;;;16.80;11.50;;;6.30;99.90;;;;;;5049080;28;20470;-53
2020/12/19 02:06:40;;;;;;;20.05;12.18;;;6.40;99.90;;;;;;5049559;28;20426;-53
2020/12/19 02:09:07;;;;;;;18.95;12.13;;;6.50;99.90;;;;;;5048742;28;20827;-53
2020/12/19 02:11:33;;;;;;;17.40;11.53;;;6.40;99.90;;;;;;5049139;28;20385;-54
2020/12/19 02:13:58;;;;;;;16.40;11.40;;;6.30;99.90;;;;;;5048732;28;20396;-53
2020/12/19 02:16:24;;;;;;;16.85;11.57;;;6.30;99.90;;;;;;5048218;28;20916;-55
2020/12/19 02:18:51;;;;;;;16.50;10.80;;;6.30;99.90;;;;;;5049422;28;20965;-53
2020/12/19 02:21:17;;;;;;;19.10;12.23;;;6.20;99.90;;;;;;5048625;28;20470;-53
2020/12/19 02:23:42;;;;;;;17.50;10.95;;;6.10;99.90;;;;;;5045859;28;20468;-54
2020/12/19 02:26:08;;;;;;;15.83;10.67;;;6.10;99.90;;;;;;5048859;28;20397;-54
2020/12/19 02:28:34;;;;;;;18.90;12.30;;;5.90;99.90;;;;;;5049100;28;20377;-54
2020/12/19 02:30:59;;;;;;;18.30;11.30;;;5.80;99.90;;;;;;5049170;28;20413;-54
2020/12/19 02:33:25;;;;;;;19.10;11.63;;;5.80;99.90;;;;;;5048400;28;20897;-56
2020/12/19 02:35:51;;;;;;;17.92;11.90;;;5.80;99.90;;;;;;5049635;28;20388;-54
2020/12/19 02:38:16;;;;;;;19.30;11.40;;;6.10;99.90;;;;;;5048647;28;20417;-54
2020/12/19 02:40:42;;;;;;;18.17;11.68;;;6.20;99.90;;;;;;5049203;28;20877;-54
2020/12/19 02:43:07;;;;;;;16.97;11.57;;;5.70;99.90;;;;;;5048484;28;20443;-54
2020/12/19 02:45:33;;;;;;;18.08;12.10;;;7.10;99.90;;;;;;5048785;28;20416;-54
2020/12/19 02:47:59;;;;;;;16.90;10.67;;;5.70;99.90;;;;;;5049767;28;20873;-53
2020/12/19 02:50:24;;;;;;;20.20;12.18;;;6.20;99.90;;;;;;5030392;28;20486;-55
2020/12/19 02:52:50;;;;;;;18.83;12.50;;;2.20;99.90;;;;;;5049154;28;20390;-54
2020/12/19 02:55:15;;;;;;;17.90;11.82;;;5.40;99.90;;;;;;5050018;28;20378;-54
2020/12/19 02:57:41;;;;;;;16.50;11.40;;;6.10;99.90;;;;;;5047441;28;20930;-54
2020/12/19 03:00:06;;;;;;;18.50;11.63;;;5.30;99.90;;;;;;5048675;28;20544;-54
2020/12/19 03:02:32;;;;;;;20.17;11.70;;;5.70;99.90;;;;;;5048171;28;20759;-54
2020/12/19 03:04:58;;;;;;;20.60;12.45;;;5.20;99.90;;;;;;5048564;28;20498;-54
2020/12/19 03:07:23;;;;;;;19.55;12.43;;;7.90;99.90;;;;;;5048111;28;20563;-54
2020/12/19 03:09:49;;;;;;;18.83;12.37;;;5.40;99.90;;;;;;5048266;28;20396;-54
2020/12/19 03:12:15;;;;;;;20.27;12.52;;;5.20;99.90;;;;;;5048248;28;20401;-53
2020/12/19 03:14:40;;;;;;;18.30;11.90;;;6.50;99.90;;;;;;5048161;28;20890;-54
2020/12/19 03:17:06;;;;;;;17.37;11.57;;;5.10;99.90;;;;;;5047389;28;20499;-53
2020/12/19 03:19:32;;;;;;;18.27;12.07;;;5.00;99.90;;;;;;5048361;28;20762;-53
2020/12/19 03:21:57;;;;;;;18.03;11.80;;;5.10;99.90;;;;;;5049241;28;20393;-53
2020/12/19 03:24:23;;;;;;;20.38;11.80;;;5.50;99.90;;;;;;5047221;28;20870;-53
2020/12/19 03:26:49;;;;;;;17.92;11.70;;;5.00;99.90;;;;;;5048327;28;20401;-53
2020/12/19 03:29:14;;;;;;;17.97;11.33;;;5.00;99.90;;;;;;5047894;28;20942;-54
2020/12/19 03:31:40;;;;;;;20.50;12.52;;;5.00;99.90;;;;;;5048242;28;20523;-54
2020/12/19 03:34:06;;;;;;;18.43;12.23;;;5.00;99.90;;;;;;5047975;28;20405;-54
2020/12/19 03:36:32;;;;;;;18.87;11.40;;;5.00;99.90;;;;;;5051386;28;20381;-54
2020/12/19 03:38:57;;;;;;;17.27;12.35;;;6.10;99.90;;;;;;5051143;28;20471;-54
2020/12/19 03:41:23;;;;;;;18.20;12.25;;;4.90;99.90;;;;;;5052721;28;20815;-54
2020/12/19 03:43:48;;;;;;;16.90;10.93;;;5.00;99.90;;;;;;5051698;28;20419;-54
2020/12/19 03:46:15;;;;;;;16.77;11.20;;;5.30;99.90;;;;;;5051996;28;20474;-55
2020/12/19 03:48:41;;;;;;;16.85;11.35;;;5.00;99.90;;;;;;5051306;28;20412;-54
2020/12/19 03:51:07;;;;;;;18.23;12.23;;;5.60;99.90;;;;;;5051843;28;20393;-54
2020/12/19 03:53:33;;;;;;;17.52;11.93;;;5.80;99.90;;;;;;5051720;28;20378;-54
2020/12/19 03:55:59;;;;;;;16.43;11.67;;;4.90;99.90;;;;;;5052041;28;20392;-55
2020/12/19 03:58:24;;;;;;;16.98;11.88;;;5.60;99.90;;;;;;5051772;28;20393;-54
2020/12/19 04:00:50;;;;;;;19.50;11.40;;;5.70;99.90;;;;;;5051902;28;20495;-54
2020/12/19 04:03:15;;;;;;;15.27;10.97;;;4.90;99.90;;;;;;5050977;28;20544;-54
2020/12/19 04:05:41;;;;;;;19.92;11.02;;;5.30;99.90;;;;;;5051580;28;20377;-54
2020/12/19 04:08:07;;;;;;;17.97;11.87;;;4.70;99.90;;;;;;5051088;28;20894;-54
2020/12/19 04:10:33;;;;;;;19.92;11.65;;;4.60;99.90;;;;;;5051047;28;20485;-54
2020/12/19 04:12:58;;;;;;;15.43;10.30;;;5.70;99.90;;;;;;5051490;28;20393;-55
2020/12/19 04:15:24;;;;;;;18.33;10.75;;;6.20;99.90;;;;;;5051862;28;20920;-54
2020/12/19 04:17:51;;;;;;;16.10;10.70;;;4.60;99.90;;;;;;5050110;28;20394;-55
2020/12/19 04:20:17;;;;;;;17.40;11.10;;;4.60;99.90;;;;;;5034240;28;20470;-54
2020/12/19 04:22:43;;;;;;;17.63;11.73;;;5.50;99.90;;;;;;5049639;28;20397;-54
2020/12/19 04:25:09;;;;;;;17.52;11.20;;;4.60;99.90;;;;;;5052085;28;20779;-55
2020/12/19 04:27:36;;;;;;;17.42;11.07;;;4.70;99.90;;;;;;5051577;28;20959;-54
2020/12/19 04:30:05;;;;;;;18.17;11.50;;;4.70;99.90;;;;;;5050628;28;20541;-55
2020/12/19 04:32:31;;;;;;;18.10;11.20;;;4.90;99.90;;;;;;5050848;28;20396;-55
2020/12/19 04:34:56;;;;;;;18.23;11.43;;;4.80;99.90;;;;;;5051142;28;20874;-54
2020/12/19 04:37:23;;;;;;;19.63;11.33;;;4.90;99.90;;;;;;5050517;28;20397;-54
2020/12/19 04:39:48;;;;;;;19.02;11.23;;;5.50;99.90;;;;;;5051127;28;20433;-54
2020/12/19 04:42:14;;;;;;;17.80;10.23;;;5.00;99.90;;;;;;5051422;28;20428;-54
2020/12/19 04:44:40;;;;;;;17.58;11.07;;;4.80;99.90;;;;;;5050148;28;20481;-54
2020/12/19 04:47:06;;;;;;;18.65;10.88;;;5.20;99.90;;;;;;5050137;28;20476;-54
2020/12/19 04:49:33;;;;;;;17.73;10.90;;;5.90;99.90;;;;;;5049900;28;20834;-55
2020/12/19 04:51:59;;;;;;;14.87;10.80;;;4.80;99.90;;;;;;5050899;28;20425;-54
2020/12/19 04:54:24;;;;;;;17.83;11.20;;;5.30;99.90;;;;;;5050742;28;20413;-55
2020/12/19 04:56:54;;;;;;;17.45;11.90;;;5.90;99.90;;;;;;5050258;28;21315;-54
2020/12/19 04:59:20;;;;;;;18.98;11.45;;;4.70;99.90;;;;;;5050015;28;20758;-54
2020/12/19 05:01:45;;;;;;;16.73;10.50;;;4.80;99.90;;;;;;5050295;28;20405;-54
2020/12/19 05:04:14;;;;;;;15.93;10.90;;;4.60;99.90;;;;;;5049434;28;20401;-54
2020/12/19 05:06:40;;;;;;;18.95;12.20;;;5.90;99.90;;;;;;5049870;28;20811;-54
2020/12/19 05:09:05;;;;;;;17.10;11.50;;;5.60;99.90;;;;;;5050282;28;20484;-54
2020/12/19 05:11:31;;;;;;;17.77;11.75;;;7.00;99.90;;;;;;5049184;28;20397;-55
2020/12/19 05:13:57;;;;;;;19.58;12.35;;;7.60;99.90;;;;;;5050993;28;20461;-54
2020/12/19 05:16:23;;;;;;;18.23;12.37;;;4.50;99.90;;;;;;5050555;28;20373;-54
2020/12/19 05:18:48;;;;;;;16.03;11.60;;;7.20;99.90;;;;;;5049410;28;20470;-54
2020/12/19 05:21:15;;;;;;;22.13;12.10;;;5.40;99.90;;;;;;5050775;28;20444;-54
2020/12/19 05:23:42;;;;;;;19.15;12.10;;;7.10;99.90;;;;;;5049478;28;20435;-54
2020/12/19 05:26:10;;;;;;;18.33;11.57;;;6.60;99.90;;;;;;5050218;28;20419;-54
2020/12/19 05:28:38;;;;;;;17.42;11.57;;;4.40;99.90;;;;;;5050067;28;20715;-54
2020/12/19 05:31:05;;;;;;;19.27;11.55;;;6.20;99.90;;;;;;5048982;28;20509;-54
2020/12/19 05:33:35;;;;;;;17.45;11.80;;;4.30;99.90;;;;;;5049881;28;20387;-56
2020/12/19 05:36:05;;;;;;;16.70;11.07;;;4.30;99.90;;;;;;5049657;28;20508;-55
2020/12/19 05:38:36;;;;;;;18.30;12.00;;;4.30;99.90;;;;;;5049734;28;20431;-55
2020/12/19 05:41:02;;;;;;;18.63;12.20;;;6.60;99.90;;;;;;5025678;28;20758;-54
2020/12/19 05:43:28;;;;;;;19.55;12.25;;;7.60;99.90;;;;;;5049048;28;20389;-55
2020/12/19 05:45:54;;;;;;;17.90;11.37;;;4.60;99.90;;;;;;5050731;28;20912;-54
2020/12/19 05:48:19;;;;;;;18.95;12.80;;;4.40;99.90;;;;;;5049248;28;20965;-54
2020/12/19 05:50:45;;;;;;;18.10;12.40;;;4.40;99.90;;;;;;5049971;28;20381;-54
2020/12/19 05:53:14;;;;;;;19.67;13.13;;;4.40;99.90;;;;;;5048800;28;20397;-54
2020/12/19 05:55:40;;;;;;;18.38;11.70;;;4.30;99.90;;;;;;5048498;28;20413;-55
2020/12/19 05:58:07;;;;;;;18.08;11.88;;;4.20;99.90;;;;;;5048256;28;20404;-55
2020/12/19 06:00:33;;;;;;;17.48;11.88;;;4.10;99.90;;;;;;5048640;28;20436;-55
2020/12/19 06:03:05;;;;;;;16.87;11.67;;;7.40;99.90;;;;;;5048815;28;20432;-55
2020/12/19 06:05:31;;;;;;;17.63;12.00;;;4.00;99.90;;;;;;5049918;28;20389;-56
2020/12/19 06:07:58;;;;;;;16.63;11.35;;;4.10;99.90;;;;;;5048782;28;20409;-54
2020/12/19 06:10:24;;;;;;;17.80;12.57;;;4.10;99.90;;;;;;5049159;28;20401;-55
2020/12/19 06:12:50;;;;;;;18.98;12.50;;;5.50;99.90;;;;;;5048977;28;20889;-54
2020/12/19 06:15:30;;;;;;;18.20;12.27;;;6.10;99.90;;;;;;5048959;28;20412;-54
2020/12/19 06:18:13;;;;;;;20.90;14.10;;;4.10;99.90;;;;;;5049069;28;20394;-54
2020/12/19 06:20:39;;;;;;;17.88;11.63;;;4.60;99.90;;;;;;5045737;28;20740;-55
2020/12/19 06:23:16;;;;;;;18.00;12.35;;;5.10;99.90;;;;;;5049259;28;20400;-54
2020/12/19 06:25:44;;;;;;;19.17;14.17;;;3.90;99.90;;;;;;5047521;28;20394;-55
2020/12/19 06:28:12;;;;;;;18.55;12.38;;;3.90;99.90;;;;;;5049131;28;20413;-54
2020/12/19 06:30:38;;;;;;;18.90;11.60;;;6.40;99.90;;;;;;5047299;28;20401;-54
2020/12/19 06:33:12;;;;;;;19.47;11.90;;;4.30;99.90;;;;;;5049469;28;20382;-54
2020/12/19 06:35:46;;;;;;;18.77;11.70;;;4.00;99.90;;;;;;5047716;28;20412;-54
2020/12/19 06:38:12;;;;;;;18.45;11.50;;;6.70;99.90;;;;;;5049581;28;20735;-54
2020/12/19 06:40:39;;;;;;;17.48;11.93;;;6.20;99.90;;;;;;5046895;28;20405;-54
2020/12/19 06:43:15;;;;;;;17.50;11.73;;;4.50;99.90;;;;;;5049653;28;20455;-54
2020/12/19 06:45:41;;;;;;;18.48;12.85;;;6.40;99.90;;;;;;5048873;28;20404;-54
2020/12/19 06:48:32;;;;;;;19.50;12.40;;;3.70;99.90;;;;;;5047663;28;20902;-55
2020/12/19 06:51:03;;;;;;;17.37;11.30;;;3.70;99.90;;;;;;5049529;28;20870;-54
2020/12/19 06:53:30;;;;;;;17.38;11.13;;;3.70;99.90;;;;;;5048345;28;20400;-56
2020/12/19 06:55:57;;;;;;;18.42;11.88;;;3.80;99.90;;;;;;5047015;28;20851;-55
2020/12/19 06:58:34;;;;;;;18.05;11.27;;;3.90;99.90;;;;;;5027333;28;20418;-54
2020/12/19 07:01:20;;;;;;;21.20;11.57;;;3.80;99.90;;;;;;5048587;28;20413;-54
2020/12/19 07:03:46;;;;;;;18.30;11.20;;;3.80;99.90;;;;;;5047086;28;20401;-54
2020/12/19 07:06:16;;;;;;;18.20;11.47;;;5.90;99.90;;;;;;5047619;28;20743;-55
2020/12/19 07:08:43;;;;;;;17.15;11.15;;;3.90;99.90;;;;;;5048645;28;20417;-53
2020/12/19 07:11:40;;;;;;;16.20;10.32;;;3.90;99.90;;;;;;5050094;28;20807;-53
2020/12/19 07:14:14;;;;;;;19.00;12.40;;;3.90;99.90;;;;;;5052938;28;20404;-54
2020/12/19 07:16:53;;;;;;;18.27;12.20;;;4.80;99.90;;;;;;5051178;28;20403;-54
2020/12/19 07:19:27;;;;;;;19.35;12.10;;;4.90;99.90;;;;;;5052704;28;20550;-54
2020/12/19 07:21:54;;;;;;;19.23;12.18;;;3.90;99.90;;;;;;5050424;28;20894;-53
2020/12/19 07:24:20;;;;;;;21.38;13.48;;;5.10;99.90;;;;;;5053083;28;20484;-55
2020/12/19 07:26:47;;;;;;;19.77;12.60;;;7.60;99.90;;;;;;5052014;28;20436;-55
2020/12/19 07:29:23;;;;;;;20.05;12.05;;;5.30;99.90;;;;;;5051778;28;20405;-54
2020/12/19 07:31:52;;;;;;;20.17;13.37;;;3.90;99.90;;;;;;5051600;28;21078;-55
2020/12/19 07:34:18;;;;;;;20.98;13.02;;;3.80;99.90;;;;;;5051298;28;20412;-54
2020/12/19 07:36:46;;;;;;;19.10;12.43;;;6.20;99.90;;;;;;5051874;28;20378;-54
2020/12/19 07:39:13;;;;;;;19.95;12.50;;;5.50;99.90;;;;;;5051738;28;20402;-54
2020/12/19 07:41:40;;;;;;;21.75;13.30;;;3.70;99.90;;;;;;5048618;28;20492;-55
2020/12/19 07:44:15;;;;;;;18.67;11.57;;;3.70;99.90;;;;;;5048313;28;20401;-55
2020/12/19 07:46:58;;;;;;;18.63;12.88;;;3.80;99.90;;;;;;5047723;28;20385;-55
2020/12/19 07:49:51;;;;;;;21.45;14.20;;;3.90;99.90;;;;;;5048663;28;21004;-55
2020/12/19 07:52:26;;;;;;;23.35;14.43;;;4.00;99.90;;;;;;5045689;28;20417;-54
2020/12/19 07:55:00;;;;;;;19.55;12.95;;;4.00;99.90;;;;;;5048216;28;20393;-54
2020/12/19 07:57:30;;;;;;;23.35;13.18;;;6.80;99.90;;;;;;5049626;28;20381;-54
2020/12/19 07:59:57;;;;;;;17.93;11.80;;;4.20;99.90;;;;;;5048835;28;20413;-53
2020/12/19 08:02:23;;;;;;;22.10;13.95;;;4.30;99.90;;;;;;5047925;28;20835;-55
2020/12/19 08:04:51;;;;;;;20.85;13.60;;;5.50;99.90;;;;;;5049054;28;20894;-55
2020/12/19 08:07:19;;;;;;;19.83;12.90;;;6.50;99.90;;;;;;5043356;28;20425;-55
2020/12/19 08:09:45;;;;;;;24.08;15.18;;;5.40;99.90;;;;;;5035981;28;20890;-54
2020/12/19 08:12:11;;;;;;;27.15;16.60;;;4.50;99.90;;;;;;5043335;28;20408;-54
2020/12/19 08:14:38;;;;;;;31.00;17.52;;;4.80;99.90;;;;;;5048236;28;20484;-54
2020/12/19 08:17:12;;;;;;;22.73;14.75;;;4.80;99.90;;;;;;5050041;28;20469;-54
2020/12/19 08:19:43;;;;;;;25.30;16.33;;;7.10;99.90;;;;;;5048257;28;20523;-54
2020/12/19 08:22:10;;;;;;;26.57;15.93;;;4.90;99.90;;;;;;5048541;28;20857;-54
2020/12/19 08:24:36;;;;;;;24.02;14.43;;;5.00;99.90;;;;;;5049567;28;20389;-54
2020/12/19 08:27:47;;;;;;;17.50;11.70;;;5.10;99.90;;;;;;5051761;28;20400;-54
2020/12/19 08:30:18;;;;;;;19.10;10.70;;;5.20;99.90;;;;;;5047541;28;20405;-55
2020/12/19 08:32:55;;;;;;;16.92;11.10;;;6.70;99.90;;;;;;5050697;28;20389;-53
2020/12/19 08:35:39;;;;;;;17.98;11.57;;;5.40;99.90;;;;;;5050403;28;20393;-54
2020/12/19 08:38:08;;;;;;;20.05;11.63;;;5.40;99.90;;;;;;5050726;28;20404;-54
2020/12/19 08:40:40;;;;;;;24.10;12.30;;;5.50;99.90;;;;;;5049768;28;20451;-55
2020/12/19 08:43:08;;;;;;;21.77;12.13;;;5.60;99.90;;;;;;5050723;28;20463;-54
2020/12/19 08:45:35;;;;;;;16.97;11.17;;;5.70;99.90;;;;;;5032835;28;20405;-54
2020/12/19 08:48:06;;;;;;;19.92;11.85;;;5.70;99.90;;;;;;5050358;28;20716;-53
2020/12/19 08:50:42;;;;;;;17.00;10.60;;;5.80;99.90;;;;;;5050618;28;20409;-57
2020/12/19 08:53:15;;;;;;;16.88;10.40;;;5.90;99.90;;;;;;5049269;28;20432;-53
2020/12/19 08:55:40;;;;;;;15.60;10.15;;;5.90;99.90;;;;;;5050108;28;20412;-52
2020/12/19 08:58:07;;;;;;;14.90;9.65;;;6.50;99.90;;;;;;5050695;28;20945;-54
2020/12/19 09:00:35;;;;;;;16.67;8.90;;;6.10;99.90;;;;;;5049246;28;20440;-56
2020/12/19 09:03:09;;;;;;;14.60;10.00;;;6.20;99.90;;;;;;5051297;28;20381;-53
2020/12/19 09:05:42;;;;;;;14.55;9.13;;;6.50;99.90;;;;;;5049041;28;20405;-55
2020/12/19 09:08:13;;;;;;;13.10;9.02;;;7.20;99.90;;;;;;5051233;28;20435;-52
2020/12/19 09:10:40;;;;;;;14.98;8.77;;;8.50;99.90;;;;;;5047028;28;20949;-54
2020/12/19 09:13:26;;;;;;;13.75;9.10;;;9.70;99.90;;;;;;5049732;28;20447;-56
2020/12/19 09:15:57;;;;;;;12.00;8.98;;;10.90;99.90;;;;;;5048465;28;20937;-54
2020/12/19 09:18:32;;;;;;;11.95;7.95;;;12.10;99.90;;;;;;5049736;28;20442;-53
2020/12/19 09:20:59;;;;;;;12.95;7.93;;;14.50;99.90;;;;;;5049678;28;20454;-55
2020/12/19 09:23:26;;;;;;;15.60;8.60;;;13.50;99.90;;;;;;5048040;28;20447;-54
2020/12/19 09:25:54;;;;;;;12.60;8.38;;;13.70;99.90;;;;;;5046907;28;20425;-55
2020/12/19 09:28:21;;;;;;;13.80;8.90;;;13.50;99.90;;;;;;5048574;28;20412;-54
2020/12/19 09:30:47;;;;;;;12.52;8.75;;;13.50;99.90;;;;;;5048790;28;20417;-54
2020/12/19 09:33:12;;;;;;;13.07;9.37;;;13.90;99.90;;;;;;5050384;28;20377;-54
2020/12/19 09:35:38;;;;;;;13.93;9.57;;;14.30;99.90;;;;;;5048281;28;20877;-54
2020/12/19 09:38:04;;;;;;;13.00;8.27;;;14.40;99.90;;;;;;5050439;28;20396;-54
2020/12/19 09:40:31;;;;;;;13.55;9.20;;;14.30;99.90;;;;;;5048520;28;20412;-56
2020/12/19 09:42:57;;;;;;;14.97;8.90;;;14.50;99.90;;;;;;5050417;28;20385;-53
2020/12/19 09:45:23;;;;;;;16.70;9.50;;;14.60;99.90;;;;;;5049109;28;20401;-54
2020/12/19 09:47:52;;;;;;;12.60;8.80;;;15.10;99.90;;;;;;5049468;28;20476;-55
2020/12/19 09:50:17;;;;;;;13.67;9.70;;;16.10;97.60;;;;;;5049816;28;20386;-55
2020/12/19 09:52:43;;;;;;;12.27;8.80;;;16.90;95.40;;;;;;5047444;28;20871;-54
2020/12/19 09:55:09;;;;;;;14.20;9.70;;;17.20;93.50;;;;;;5050136;28;20858;-53
2020/12/19 09:57:35;;;;;;;12.70;8.50;;;17.60;92.60;;;;;;5044245;28;20402;-55
2020/12/19 10:00:02;;;;;;;13.52;8.15;;;17.70;90.40;;;;;;5048760;28;20415;-54
2020/12/19 10:02:27;;;;;;;11.60;8.18;;;17.10;91.00;;;;;;5047291;28;20409;-54
2020/12/19 10:04:53;;;;;;;13.60;8.53;;;16.80;91.70;;;;;;5046199;28;20478;-53
2020/12/19 10:07:19;;;;;;;11.80;8.50;;;17.10;91.20;;;;;;5046810;28;20401;-55
2020/12/19 10:09:44;;;;;;;11.25;7.60;;;17.60;91.80;;;;;;5047259;28;20413;-53
2020/12/19 10:12:10;;;;;;;11.20;7.33;;;17.50;88.40;;;;;;5048948;28;20399;-53
2020/12/19 10:14:36;;;;;;;12.87;8.13;;;17.10;90.10;;;;;;5046187;28;20944;-53
2020/12/19 10:17:01;;;;;;;12.05;8.68;;;17.40;91.00;;;;;;5048767;28;20385;-53
2020/12/19 10:19:27;;;;;;;11.23;7.30;;;17.10;91.60;;;;;;5046893;28;20405;-55
2020/12/19 10:21:52;;;;;;;11.83;7.87;;;17.10;91.60;;;;;;5048039;28;20412;-52
2020/12/19 10:24:18;;;;;;;12.35;7.47;;;17.60;88.90;;;;;;5049169;28;20400;-53
2020/12/19 10:26:48;;;;;;;11.47;7.90;;;17.90;87.90;;;;;;5047798;28;20398;-54
2020/12/19 10:29:14;;;;;;;11.52;8.02;;;18.60;85.90;;;;;;5049345;28;20447;-53
2020/12/19 10:31:40;;;;;;;12.07;8.65;;;17.50;85.10;;;;;;5045970;28;20430;-53
2020/12/19 10:34:06;;;;;;;11.77;8.15;;;16.90;88.40;;;;;;5047830;28;20400;-54
2020/12/19 10:36:32;;;;;;;12.40;8.60;;;16.80;88.30;;;;;;5047889;28;20409;-58
2020/12/19 10:38:58;;;;;;;12.35;8.60;;;17.00;90.60;;;;;;5047416;28;20699;-54
2020/12/19 10:41:24;;;;;;;12.25;8.20;;;17.10;90.20;;;;;;5048230;28;20771;-55
2020/12/19 10:43:49;;;;;;;13.77;9.15;;;16.70;90.30;;;;;;5046010;28;20486;-55
2020/12/19 10:46:21;;;;;;;11.33;8.53;;;17.10;90.20;;;;;;5054541;28;20382;-54
2020/12/19 10:48:46;;;;;;;12.88;8.13;;;17.20;91.10;;;;;;5049876;28;20743;-54
2020/12/19 10:51:12;;;;;;;13.93;8.70;;;17.70;89.90;;;;;;5055324;28;20400;-54
2020/12/19 10:53:39;;;;;;;13.98;8.80;;;17.70;91.30;;;;;;5052963;28;20401;-53
2020/12/19 10:56:05;;;;;;;11.02;8.57;;;17.70;90.70;;;;;;5053246;28;20401;-53
2020/12/19 10:58:31;;;;;;;11.27;8.63;;;18.40;89.00;;;;;;5053650;28;21439;-52
2020/12/19 11:00:57;;;;;;;12.77;9.20;;;18.30;90.30;;;;;;5053798;28;20491;-54
2020/12/19 11:03:23;;;;;;;13.50;8.47;;;17.80;90.40;;;;;;5049389;28;20406;-53
2020/12/19 11:05:49;;;;;;;14.57;7.93;;;17.40;88.00;;;;;;5052809;28;20408;-55
2020/12/19 11:08:14;;;;;;;11.52;8.48;;;17.70;87.10;;;;;;5056010;28;20389;-54
2020/12/19 11:10:42;;;;;;;12.57;8.40;;;17.60;87.00;;;;;;5052536;28;20397;-53
2020/12/19 11:13:08;;;;;;;11.98;8.25;;;17.00;89.40;;;;;;5053536;28;20399;-55
2020/12/19 11:15:34;;;;;;;14.43;8.87;;;16.90;88.90;;;;;;5054366;28;20711;-54
2020/12/19 11:18:00;;;;;;;10.45;7.50;;;17.10;87.60;;;;;;5053844;28;20450;-54
2020/12/19 11:20:25;;;;;;;11.85;7.93;;;16.90;88.90;;;;;;5054570;28;20421;-54
2020/12/19 11:22:51;;;;;;;12.50;8.10;;;17.10;90.80;;;;;;5053834;28;20472;-54
2020/12/19 11:25:17;;;;;;;15.57;8.10;;;16.80;89.00;;;;;;5053474;28;20927;-53
2020/12/19 11:27:43;;;;;;;12.90;8.18;;;16.20;90.70;;;;;;5052598;28;20889;-54
2020/12/19 11:30:09;;;;;;;12.47;8.13;;;15.40;91.60;;;;;;5052126;28;20492;-54
2020/12/19 11:32:35;;;;;;;11.98;7.60;;;14.50;92.90;;;;;;5051730;28;20743;-54
2020/12/19 11:35:01;;;;;;;10.88;7.20;;;13.80;94.40;;;;;;5048721;28;20967;-55
2020/12/19 11:37:26;;;;;;;10.82;7.40;;;13.50;95.90;;;;;;5048634;28;20392;-54
2020/12/19 11:39:53;;;;;;;11.97;7.67;;;13.00;96.50;;;;;;5051524;28;20497;-54
2020/12/19 11:42:20;;;;;;;11.88;7.72;;;12.60;98.20;;;;;;5054078;28;20451;-53
2020/12/19 11:44:47;;;;;;;11.18;7.55;;;12.10;99.90;;;;;;5050874;28;20464;-54
2020/12/19 11:47:13;;;;;;;13.35;8.60;;;11.80;99.90;;;;;;5054715;28;20524;-54
2020/12/19 11:49:38;;;;;;;12.15;7.40;;;11.70;99.90;;;;;;5051986;28;20413;-53
2020/12/19 11:52:08;;;;;;;13.15;7.90;;;11.90;99.90;;;;;;5054361;28;20957;-53
2020/12/19 11:54:37;;;;;;;13.35;8.10;;;12.10;99.90;;;;;;5054691;28;20383;-58
2020/12/19 11:57:04;;;;;;;11.60;7.97;;;11.70;99.90;;;;;;5049146;28;20424;-53
2020/12/19 11:59:29;;;;;;;11.63;8.27;;;12.40;99.90;;;;;;5052410;28;20492;-53
2020/12/19 12:01:55;;;;;;;13.40;8.53;;;12.80;99.90;;;;;;5050286;28;20476;-53
2020/12/19 12:04:21;;;;;;;12.20;7.50;;;12.90;99.90;;;;;;5051872;28;20688;-54
2020/12/19 12:06:47;;;;;;;12.45;8.32;;;12.90;99.90;;;;;;5049999;28;20499;-53
2020/12/19 12:09:12;;;;;;;12.77;8.00;;;13.20;99.90;;;;;;5051638;28;20877;-53
2020/12/19 12:11:38;;;;;;;16.37;10.60;;;13.40;99.90;;;;;;5050295;28;20565;-53
2020/12/19 12:14:04;;;;;;;15.23;10.88;;;13.70;99.90;;;;;;5051437;28;20405;-53
2020/12/19 12:16:29;;;;;;;18.77;12.23;;;13.90;99.90;;;;;;5048025;28;20405;-53
2020/12/19 12:18:57;;;;;;;12.50;8.43;;;13.90;99.90;;;;;;5049803;28;20386;-54
2020/12/19 12:21:23;;;;;;;11.37;7.57;;;14.10;99.90;;;;;;5050334;28;20485;-53
2020/12/19 12:23:49;;;;;;;11.93;7.30;;;14.40;99.90;;;;;;5045457;28;20805;-53
2020/12/19 12:26:24;;;;;;;11.17;7.53;;;14.50;99.90;;;;;;5048798;28;20393;-53
2020/12/19 12:28:50;;;;;;;12.77;8.00;;;14.80;99.40;;;;;;5045600;28;20900;-54
2020/12/19 12:31:24;;;;;;;9.68;6.45;;;15.00;98.90;;;;;;5048045;28;20417;-53
2020/12/19 12:33:50;;;;;;;12.70;8.32;;;15.10;97.40;;;;;;5049624;28;20790;-53
2020/12/19 12:36:16;;;;;;;12.52;7.35;;;15.30;98.30;;;;;;5049715;28;20396;-53
2020/12/19 12:38:42;;;;;;;10.55;7.03;;;15.40;97.00;;;;;;5047837;28;20424;-52
2020/12/19 12:41:07;;;;;;;11.17;7.43;;;15.40;96.80;;;;;;5048506;28;20899;-55